createdAt,value
2019-02-16T00:02:14.181Z,13.03
2019-02-16T00:04:47.912Z,14.10
2019-02-16T00:07:21.741Z,13.77
2019-02-16T00:09:56.433Z,12.90
2019-02-16T00:12:30.132Z,9.23
2019-02-16T00:15:03.857Z,11.33
2019-02-16T00:17:37.524Z,10.87
2019-02-16T00:20:12.051Z,12.43
2019-02-16T00:22:46.697Z,10.83
2019-02-16T00:25:21.189Z,11.27
2019-02-16T00:27:54.918Z,13.97
2019-02-16T00:30:28.524Z,11.83
2019-02-16T00:33:02.383Z,11.50
2019-02-16T00:35:36.090Z,15.97
2019-02-16T00:38:09.844Z,10.37
2019-02-16T00:40:43.724Z,12.93
2019-02-16T00:43:17.449Z,13.10
2019-02-16T00:45:52.069Z,12.30
2019-02-16T00:48:25.905Z,9.70
2019-02-16T00:50:59.682Z,11.80
2019-02-16T00:53:33.395Z,8.97
2019-02-16T00:56:07.034Z,9.37
2019-02-16T00:58:40.798Z,11.93
2019-02-16T01:01:14.606Z,11.73
2019-02-16T01:03:48.521Z,8.30
2019-02-16T01:06:23.001Z,11.07
2019-02-16T01:08:56.708Z,8.23
2019-02-16T01:11:30.424Z,8.53
2019-02-16T01:14:04.941Z,8.53
2019-02-16T01:16:38.711Z,8.83
2019-02-16T01:19:13.297Z,8.17
2019-02-16T01:21:47.114Z,8.10
2019-02-16T01:24:21.500Z,6.97
2019-02-16T01:26:56.020Z,8.90
2019-02-16T01:29:29.736Z,9.93
2019-02-16T01:32:04.255Z,7.27
2019-02-16T01:34:37.977Z,7.70
2019-02-16T01:37:11.688Z,9.07
2019-02-16T01:39:45.477Z,9.53
2019-02-16T01:42:19.208Z,7.30
2019-02-16T01:44:52.889Z,8.60
2019-02-16T01:47:26.570Z,8.87
2019-02-16T01:50:00.403Z,7.63
2019-02-16T01:52:34.792Z,10.37
2019-02-16T01:55:08.532Z,7.17
2019-02-16T01:57:42.229Z,11.67
2019-02-16T02:00:16.114Z,7.53
2019-02-16T02:02:49.828Z,9.57
2019-02-16T02:05:24.358Z,8.23
2019-02-16T02:07:58.066Z,10.27
2019-02-16T02:10:31.840Z,8.03
2019-02-16T02:13:05.437Z,9.83
2019-02-16T02:15:39.209Z,9.27
2019-02-16T02:18:13.790Z,6.90
2019-02-16T02:20:48.328Z,7.70
2019-02-16T02:23:22.172Z,7.37
2019-02-16T02:25:55.919Z,5.47
2019-02-16T02:28:29.689Z,7.87
2019-02-16T02:31:03.475Z,7.10
2019-02-16T02:33:37.938Z,8.90
2019-02-16T02:36:11.671Z,6.47
2019-02-16T02:38:45.385Z,5.43
2019-02-16T02:41:20.005Z,7.43
2019-02-16T02:44:25.046Z,6.63
2019-02-16T02:46:58.733Z,5.53
2019-02-16T02:49:32.477Z,6.60
2019-02-16T02:52:06.161Z,5.13
2019-02-16T02:54:39.765Z,7.07
2019-02-16T02:57:13.393Z,5.07
2019-02-16T02:59:47.314Z,6.97
2019-02-16T03:02:20.877Z,5.60
2019-02-16T03:04:55.376Z,7.80
2019-02-16T03:07:29.134Z,8.17
2019-02-16T03:10:03.609Z,6.53
2019-02-16T03:12:38.108Z,5.93
2019-02-16T03:15:11.854Z,6.83
2019-02-16T03:17:45.557Z,8.63
2019-02-16T03:20:19.285Z,6.17
2019-02-16T03:23:10.961Z,8.37
2019-02-16T03:25:48.322Z,6.70
2019-02-16T03:28:27.406Z,9.40
2019-02-16T03:34:15.474Z,9.93
2019-02-16T03:39:49.214Z,10.80
2019-02-16T03:42:22.797Z,6.93
2019-02-16T03:44:57.172Z,7.30
2019-02-16T03:47:30.853Z,6.10
2019-02-16T03:50:04.651Z,7.40
2019-02-16T03:52:38.365Z,7.03
2019-02-16T03:55:12.833Z,9.13
2019-02-16T03:57:46.556Z,6.53
2019-02-16T04:00:20.377Z,7.43
2019-02-16T04:02:54.265Z,8.00
2019-02-16T04:05:27.849Z,9.23
2019-02-16T04:08:01.461Z,6.57
2019-02-16T04:10:35.027Z,6.03
2019-02-16T04:13:08.796Z,7.63
2019-02-16T04:15:42.613Z,8.43
2019-02-16T04:18:16.283Z,6.97
2019-02-16T04:20:49.917Z,5.47
2019-02-16T04:23:23.721Z,6.57
2019-02-16T04:25:58.302Z,5.60
2019-02-16T04:28:31.997Z,6.83
2019-02-16T04:31:05.812Z,8.13
2019-02-16T04:33:39.496Z,5.50
2019-02-16T04:36:14.153Z,9.57
2019-02-16T04:38:48.091Z,8.00
2019-02-16T04:41:22.472Z,6.60
2019-02-16T04:43:56.198Z,8.43
2019-02-16T04:46:30.053Z,7.80
2019-02-16T04:49:03.873Z,6.30
2019-02-16T04:51:38.517Z,7.30
2019-02-16T04:54:12.246Z,8.47
2019-02-16T04:56:45.836Z,6.93
2019-02-16T04:59:19.504Z,14.33
2019-02-16T05:01:53.216Z,6.13
2019-02-16T05:04:26.993Z,6.77
2019-02-16T05:07:00.873Z,7.10
2019-02-16T05:09:34.670Z,8.73
2019-02-16T05:12:08.386Z,7.17
2019-02-16T05:14:42.032Z,9.03
2019-02-16T05:17:15.632Z,6.93
2019-02-16T05:19:49.376Z,7.97
2019-02-16T05:22:23.152Z,7.13
2019-02-16T05:24:56.771Z,10.23
2019-02-16T05:27:30.489Z,7.50
2019-02-16T05:30:05.101Z,9.50
2019-02-16T05:32:39.628Z,5.30
2019-02-16T05:35:14.143Z,8.53
2019-02-16T05:37:48.107Z,9.60
2019-02-16T05:40:21.722Z,8.47
2019-02-16T05:42:55.380Z,6.27
2019-02-16T05:45:30.004Z,8.03
2019-02-16T05:48:03.707Z,7.80
2019-02-16T05:50:37.476Z,7.03
2019-02-16T05:53:12.020Z,7.07
2019-02-16T05:55:46.996Z,10.63
2019-02-16T05:58:20.428Z,7.47
2019-02-16T06:00:54.233Z,6.67
2019-02-16T06:03:27.844Z,9.30
2019-02-16T06:06:01.560Z,9.50
2019-02-16T06:08:36.167Z,10.43
2019-02-16T06:11:09.905Z,6.83
2019-02-16T06:13:44.414Z,9.23
2019-02-16T06:16:18.937Z,7.87
2019-02-16T06:18:53.433Z,7.63
2019-02-16T06:21:27.216Z,8.50
2019-02-16T06:24:00.832Z,9.73
2019-02-16T06:26:35.178Z,7.40
2019-02-16T06:29:09.016Z,7.10
2019-02-16T06:31:42.812Z,10.63
2019-02-16T06:34:16.625Z,7.00
2019-02-16T06:36:51.321Z,7.50
2019-02-16T06:39:25.078Z,7.83
2019-02-16T06:41:58.823Z,10.27
2019-02-16T06:44:33.494Z,9.67
2019-02-16T06:47:07.193Z,8.83
2019-02-16T06:49:40.988Z,9.43
2019-02-16T06:52:14.780Z,7.23
2019-02-16T06:54:48.515Z,7.53
2019-02-16T06:57:22.396Z,9.60
2019-02-16T06:59:56.937Z,8.00
2019-02-16T07:02:31.432Z,8.87
2019-02-16T07:05:05.180Z,9.67
2019-02-16T07:07:38.972Z,9.67
2019-02-16T07:10:12.785Z,9.77
2019-02-16T07:12:47.513Z,9.03
2019-02-16T07:15:21.909Z,9.23
2019-02-16T07:17:55.525Z,6.03
2019-02-16T07:20:29.668Z,12.00
2019-02-16T07:23:03.382Z,8.57
2019-02-16T07:25:37.849Z,10.17
2019-02-16T07:28:12.368Z,9.33
2019-02-16T07:30:45.989Z,8.17
2019-02-16T07:33:24.278Z,8.60
2019-02-16T07:35:58.143Z,9.30
2019-02-16T07:38:32.018Z,13.20
2019-02-16T07:41:05.826Z,9.50
2019-02-16T07:43:39.675Z,12.40
2019-02-16T07:46:14.134Z,12.27
2019-02-16T07:48:48.640Z,11.63
2019-02-16T07:51:22.404Z,7.90
2019-02-16T07:53:56.192Z,11.90
2019-02-16T07:56:30.792Z,11.40
2019-02-16T07:59:04.605Z,13.10
2019-02-16T08:01:38.283Z,12.00
2019-02-16T08:04:12.050Z,14.00
2019-02-16T08:06:46.437Z,11.57
2019-02-16T08:09:20.171Z,9.63
2019-02-16T08:11:54.745Z,11.30
2019-02-16T08:14:28.456Z,15.97
2019-02-16T08:17:02.890Z,10.40
2019-02-16T08:19:37.410Z,14.73
2019-02-16T08:22:11.137Z,10.63
2019-02-16T08:24:44.714Z,13.63
2019-02-16T08:27:18.296Z,14.70
2019-02-16T08:29:52.864Z,13.50
2019-02-16T08:32:26.648Z,15.50
2019-02-16T08:35:01.153Z,12.50
2019-02-16T08:37:35.784Z,14.00
2019-02-16T08:40:09.501Z,12.73
2019-02-16T08:42:43.305Z,12.80
2019-02-16T08:45:17.080Z,11.40
2019-02-16T08:47:50.865Z,14.03
2019-02-16T08:50:25.535Z,13.47
2019-02-16T08:52:59.284Z,15.03
2019-02-16T08:55:32.870Z,14.17
2019-02-16T08:58:06.781Z,18.13
2019-02-16T09:00:40.492Z,17.77
2019-02-16T09:03:14.212Z,16.40
2019-02-16T09:05:48.821Z,13.03
2019-02-16T09:08:22.667Z,30.87
2019-02-16T09:10:56.486Z,23.87
2019-02-16T09:13:30.309Z,18.60
2019-02-16T09:16:03.923Z,18.03
2019-02-16T09:18:37.642Z,17.13
2019-02-16T09:21:14.680Z,19.20
2019-02-16T09:23:48.576Z,18.57
2019-02-16T09:26:22.367Z,20.60
2019-02-16T09:28:56.964Z,15.20
2019-02-16T09:31:30.701Z,17.10
2019-02-16T09:34:04.537Z,16.60
2019-02-16T09:36:38.873Z,16.47
2019-02-16T09:39:12.601Z,15.70
2019-02-16T09:41:48.040Z,19.47
2019-02-16T09:44:21.650Z,16.27
2019-02-16T09:46:55.343Z,15.27
2019-02-16T09:49:29.205Z,17.87
2019-02-16T09:52:02.793Z,17.57
2019-02-16T09:54:36.593Z,14.60
2019-02-16T09:57:11.839Z,19.40
2019-02-16T09:59:45.570Z,18.00
2019-02-16T10:02:19.502Z,19.13
2019-02-16T10:05:00.238Z,22.27
2019-02-16T10:07:34.788Z,16.10
2019-02-16T10:10:08.465Z,17.53
2019-02-16T10:12:42.312Z,19.33
2019-02-16T10:15:16.181Z,17.83
2019-02-16T10:17:55.791Z,17.80
2019-02-16T10:20:30.171Z,18.23
2019-02-16T10:23:04.818Z,19.70
2019-02-16T10:25:38.555Z,18.67
2019-02-16T10:28:12.401Z,16.13
2019-02-16T10:30:46.291Z,17.40
2019-02-16T10:33:20.010Z,19.33
2019-02-16T10:35:59.644Z,19.30
2019-02-16T10:38:33.380Z,16.90
2019-02-16T10:41:07.230Z,18.57
2019-02-16T10:43:41.096Z,18.10
2019-02-16T10:46:14.837Z,17.47
2019-02-16T10:48:49.338Z,16.90
2019-02-16T10:51:23.833Z,15.43
2019-02-16T10:53:57.563Z,16.43
2019-02-16T10:56:31.253Z,18.67
2019-02-16T10:59:05.045Z,18.63
2019-02-16T11:01:38.733Z,18.37
2019-02-16T11:04:12.577Z,16.50
2019-02-16T11:06:46.425Z,21.33
2019-02-16T11:09:21.086Z,20.53
2019-02-16T11:11:55.619Z,18.57
2019-02-16T11:14:30.137Z,17.73
2019-02-16T11:17:03.916Z,18.40
2019-02-16T11:19:37.662Z,15.87
2019-02-16T11:22:11.436Z,17.67
2019-02-16T11:24:45.201Z,16.63
2019-02-16T11:27:19.014Z,19.97
2019-02-16T11:29:52.789Z,18.87
2019-02-16T11:32:26.533Z,16.53
2019-02-16T11:35:01.108Z,19.73
2019-02-16T11:37:34.832Z,17.30
2019-02-16T11:40:08.724Z,20.67
2019-02-16T11:42:42.438Z,21.50
2019-02-16T11:45:16.954Z,17.27
2019-02-16T11:47:51.485Z,20.57
2019-02-16T11:50:25.375Z,22.73
2019-02-16T11:52:59.094Z,17.73
2019-02-16T11:55:33.586Z,18.57
2019-02-16T11:58:07.329Z,16.33
2019-02-16T12:00:41.143Z,19.47
2019-02-16T12:03:14.827Z,21.93
2019-02-16T12:05:48.628Z,18.67
2019-02-16T12:08:22.377Z,19.60
2019-02-16T12:10:56.130Z,21.60
2019-02-16T12:13:29.852Z,20.10
2019-02-16T12:16:03.669Z,20.63
2019-02-16T12:18:37.436Z,17.37
2019-02-16T12:21:11.217Z,22.70
2019-02-16T12:23:44.980Z,18.30
2019-02-16T12:26:18.706Z,16.93
2019-02-16T12:28:52.494Z,21.17
2019-02-16T12:31:27.092Z,18.70
2019-02-16T12:34:00.796Z,17.67
2019-02-16T12:36:34.540Z,19.37
2019-02-16T12:39:09.138Z,19.03
2019-02-16T12:41:42.981Z,17.90
2019-02-16T12:44:16.713Z,18.50
2019-02-16T12:46:51.277Z,23.00
2019-02-16T12:49:24.989Z,16.87
2019-02-16T12:51:59.509Z,21.10
2019-02-16T12:54:33.308Z,17.47
2019-02-16T12:57:07.149Z,21.70
2019-02-16T12:59:41.062Z,17.93
2019-02-16T13:02:14.736Z,22.37
2019-02-16T13:04:48.560Z,18.80
2019-02-16T13:07:22.346Z,16.53
2019-02-16T13:09:56.272Z,20.80
2019-02-16T13:12:29.899Z,18.03
2019-02-16T13:15:03.680Z,21.60
2019-02-16T13:17:37.462Z,21.50
2019-02-16T13:20:11.164Z,22.13
2019-02-16T13:22:44.779Z,20.23
2019-02-16T13:25:24.419Z,20.53
2019-02-16T13:27:52.256Z,21.37
2019-02-16T13:30:26.001Z,22.63
2019-02-16T13:33:08.318Z,17.67
2019-02-16T13:35:33.401Z,19.10
2019-02-16T13:38:07.209Z,18.00
2019-02-16T13:40:40.981Z,19.57
2019-02-16T13:43:14.745Z,17.80
2019-02-16T13:45:48.541Z,18.57
2019-02-16T13:48:22.231Z,16.90
2019-02-16T13:50:56.830Z,17.40
2019-02-16T13:53:30.583Z,17.53
2019-02-16T13:56:05.037Z,19.07
2019-02-16T13:58:38.799Z,18.27
2019-02-16T14:01:12.457Z,24.20
2019-02-16T14:03:55.585Z,18.27
2019-02-16T14:06:29.293Z,22.03
2019-02-16T14:09:03.078Z,18.93
2019-02-16T14:11:36.934Z,22.17
2019-02-16T14:14:10.737Z,18.90
2019-02-16T14:16:45.128Z,20.10
2019-02-16T14:19:18.853Z,20.27
2019-02-16T14:21:52.665Z,17.60
2019-02-16T14:24:26.400Z,19.60
2019-02-16T14:27:00.196Z,17.50
2019-02-16T14:29:33.974Z,19.03
2019-02-16T14:32:07.785Z,20.03
2019-02-16T14:34:41.609Z,20.10
2019-02-16T14:37:16.237Z,19.37
2019-02-16T14:39:50.745Z,18.67
2019-02-16T14:42:24.526Z,21.90
2019-02-16T14:44:58.288Z,18.80
2019-02-16T14:47:32.833Z,21.00
2019-02-16T14:50:06.629Z,19.30
2019-02-16T14:52:41.073Z,19.73
2019-02-16T14:55:14.938Z,19.63
2019-02-16T14:57:48.643Z,20.73
2019-02-16T15:00:22.519Z,17.03
2019-02-16T15:02:56.196Z,22.30
2019-02-16T15:05:29.978Z,20.20
2019-02-16T15:08:03.846Z,20.17
2019-02-16T15:10:37.687Z,21.37
2019-02-16T15:13:12.138Z,17.03
2019-02-16T15:15:45.846Z,22.97
2019-02-16T15:18:19.795Z,22.70
2019-02-16T15:20:53.462Z,22.23
2019-02-16T15:23:28.154Z,22.73
2019-02-16T15:26:02.831Z,20.57
2019-02-16T15:28:38.699Z,18.50
2019-02-16T15:31:13.297Z,24.60
2019-02-16T15:33:47.836Z,24.47
2019-02-16T15:36:23.945Z,21.57
2019-02-16T15:38:56.060Z,16.23
2019-02-16T15:41:29.778Z,18.03
2019-02-16T15:44:03.669Z,23.67
2019-02-16T15:46:37.580Z,19.67
2019-02-16T15:49:11.375Z,18.57
2019-02-16T15:51:45.240Z,21.63
2019-02-16T15:54:19.008Z,21.80
2019-02-16T15:56:52.817Z,20.50
2019-02-16T15:59:34.871Z,21.50
2019-02-16T16:02:00.972Z,18.57
2019-02-16T16:04:34.762Z,21.07
2019-02-16T16:07:08.529Z,20.27
2019-02-16T16:09:42.338Z,22.60
2019-02-16T16:12:16.207Z,18.43
2019-02-16T16:14:49.890Z,20.47
2019-02-16T16:17:23.713Z,16.17
2019-02-16T16:19:57.434Z,19.23
2019-02-16T16:22:32.018Z,18.07
2019-02-16T16:25:05.743Z,17.63
2019-02-16T16:27:39.552Z,19.10
2019-02-16T16:30:13.202Z,17.87
2019-02-16T16:32:47.698Z,17.43
2019-02-16T16:35:21.467Z,20.67
2019-02-16T16:37:55.183Z,19.60
2019-02-16T16:40:28.990Z,18.67
2019-02-16T16:43:04.317Z,20.93
2019-02-16T16:45:37.819Z,18.27
2019-02-16T16:48:11.739Z,18.77
2019-02-16T16:50:45.522Z,23.03
2019-02-16T16:53:22.950Z,18.90
2019-02-16T16:55:56.636Z,24.40
2019-02-16T16:58:30.357Z,21.07
2019-02-16T17:01:04.104Z,20.53
2019-02-16T17:03:38.608Z,18.43
2019-02-16T17:06:13.098Z,18.30
2019-02-16T17:08:47.632Z,18.77
2019-02-16T17:11:21.361Z,18.27
2019-02-16T17:13:54.956Z,18.50
2019-02-16T17:16:28.629Z,18.83
2019-02-16T17:19:02.401Z,18.23
2019-02-16T17:21:36.169Z,18.50
2019-02-16T17:24:09.839Z,18.73
2019-02-16T17:26:43.760Z,24.03
2019-02-16T17:29:17.603Z,17.87
2019-02-16T17:31:51.446Z,19.80
2019-02-16T17:34:25.283Z,19.93
